Time;durP1;ratioP1;P1;durP2;ratioP2;P2;SDS_P1;SDS_P2;PMS_P1;PMS_P2;Temp;Humidity;BMP_temperature;BMP_pressure;BME280_temperature;BME280_humidity;BME280_pressure;Samples;Min_cycle;Max_cycle;Signal;HPM_P1;HPM_P2
2024/02/08 00:00:07;;;;;;;6.18;2.00;;;;;;;-2.26;54.31;100406.50;5043249;28;20369;-71
2024/02/08 00:02:33;;;;;;;6.95;1.45;;;;;;;-2.33;54.42;100402.22;5028033;28;20028;-71
2024/02/08 00:04:59;;;;;;;7.57;2.05;;;;;;;-2.34;54.29;100405.59;5069074;28;20043;-71
2024/02/08 00:07:24;;;;;;;7.10;1.58;;;;;;;-2.35;54.48;100405.59;5067262;28;20109;-72
2024/02/08 00:09:51;;;;;;;3.50;1.52;;;;;;;-2.39;54.53;100396.19;5069902;28;20020;-72
2024/02/08 00:12:17;;;;;;;10.82;2.78;;;;;;;-2.43;54.72;100385.06;5033677;28;20051;-73
2024/02/08 00:14:43;;;;;;;9.98;1.52;;;;;;;-2.47;55.26;100391.00;5030228;28;20043;-72
2024/02/08 00:17:08;;;;;;;11.52;2.08;;;;;;;-2.36;54.92;100391.94;5060891;28;20041;-72
2024/02/08 00:19:34;;;;;;;8.77;1.73;;;;;;;-2.41;54.67;100391.06;5032503;28;20718;-71
2024/02/08 00:21:59;;;;;;;5.32;2.00;;;;;;;-2.37;54.77;100381.72;5071537;28;20444;-73
2024/02/08 00:24:25;;;;;;;4.90;1.00;;;;;;;-2.33;54.44;100384.28;5031564;28;20036;-72
2024/02/08 00:26:50;;;;;;;6.43;1.42;;;;;;;-2.37;54.42;100382.56;5053936;28;20288;-73
2024/02/08 00:29:16;;;;;;;10.48;1.63;;;;;;;-2.37;54.64;100386.81;5078083;28;20131;-72
2024/02/08 00:31:42;;;;;;;5.50;1.52;;;;;;;-2.39;54.56;100381.69;5045492;28;20036;-73
2024/02/08 00:34:08;;;;;;;14.55;1.63;;;;;;;-2.44;54.97;100380.81;5069125;28;20035;-72
2024/02/08 00:36:34;;;;;;;10.00;1.13;;;;;;;-2.56;55.19;100384.13;5018647;28;20051;-72
2024/02/08 00:39:05;;;;;;;3.38;1.10;;;;;;;-2.50;54.99;100371.38;5033096;28;20089;-70
2024/02/08 00:41:30;;;;;;;6.78;1.50;;;;;;;-2.59;55.53;100380.72;5047068;28;20093;-68
2024/02/08 00:43:56;;;;;;;5.45;1.45;;;;;;;-2.43;55.20;100372.28;5078340;28;20494;-68
2024/02/08 00:46:21;;;;;;;8.57;1.80;;;;;;;-2.38;55.06;100378.28;5049800;28;20101;-68
2024/02/08 00:48:47;;;;;;;5.95;1.55;;;;;;;-2.49;55.26;100372.22;5009246;28;20153;-69
2024/02/08 00:51:12;;;;;;;7.05;1.92;;;;;;;-2.51;55.33;100374.81;5058055;28;20099;-70
2024/02/08 00:53:38;;;;;;;7.53;1.30;;;;;;;-2.50;54.92;100371.38;5066183;28;20084;-70
2024/02/08 00:56:03;;;;;;;7.22;1.13;;;;;;;-2.41;54.75;100375.69;5078547;28;20092;-70
2024/02/08 00:58:29;;;;;;;6.72;2.15;;;;;;;-2.45;55.29;100376.53;5051566;28;20149;-69
2024/02/08 01:00:54;;;;;;;6.18;2.65;;;;;;;-2.49;55.16;100374.78;5054574;28;20055;-71
2024/02/08 01:03:23;;;;;;;6.90;1.85;;;;;;;-2.42;54.76;100382.53;5078343;28;20042;-73
2024/02/08 01:05:50;;;;;;;6.00;1.23;;;;;;;-2.48;54.96;100379.06;5067148;28;20047;-73
2024/02/08 01:08:15;;;;;;;10.80;2.47;;;;;;;-2.53;54.61;100375.66;5059712;28;20019;-73
2024/02/08 01:10:41;;;;;;;5.70;1.55;;;;;;;-2.51;54.93;100376.50;5039959;28;20958;-72
2024/02/08 01:13:06;;;;;;;3.65;1.27;;;;;;;-2.49;54.79;100373.09;5030180;28;21899;-74
2024/02/08 01:15:32;;;;;;;6.72;1.60;;;;;;;-2.49;54.70;100368.00;5030921;28;20640;-72
2024/02/08 01:17:58;;;;;;;8.45;1.30;;;;;;;-2.55;54.73;100362.84;5047478;28;20081;-73
2024/02/08 01:20:27;;;;;;;8.18;1.20;;;;;;;-2.55;55.18;100374.78;5078794;28;20053;-73
2024/02/08 01:22:54;;;;;;;7.38;2.10;;;;;;;-2.53;54.89;100370.53;5066820;28;20056;-73
2024/02/08 01:25:19;;;;;;;4.82;1.27;;;;;;;-2.51;54.95;100371.41;5031490;28;20115;-70
2024/02/08 01:27:46;;;;;;;9.75;1.98;;;;;;;-2.52;55.20;100364.53;5024022;28;22189;-71
2024/02/08 01:30:13;;;;;;;3.92;1.25;;;;;;;-2.53;55.72;100365.41;5032078;28;20697;-72
2024/02/08 01:32:40;;;;;;;15.68;1.75;;;;;;;-2.32;55.53;100365.50;4994247;28;20044;-72
2024/02/08 01:35:10;;;;;;;6.13;2.35;;;;;;;-2.28;55.67;100354.44;5034690;28;20653;-73
2024/02/08 01:37:38;;;;;;;11.68;2.53;;;;;;;-2.35;55.85;100365.50;5041197;28;20047;-73
2024/02/08 01:40:16;;;;;;;5.00;1.60;;;;;;;-2.31;56.28;100361.22;5077746;28;20084;-73
2024/02/08 01:42:48;;;;;;;3.55;1.10;;;;;;;-2.16;55.68;100360.47;5062068;27;20466;-72
2024/02/08 01:45:34;;;;;;;9.55;1.73;;;;;;;-2.18;55.67;100363.00;5058569;28;20042;-73
2024/02/08 01:48:02;;;;;;;16.23;1.63;;;;;;;-2.06;55.39;100351.97;5053627;28;20991;-74
2024/02/08 01:50:30;;;;;;;6.60;1.15;;;;;;;-1.92;55.16;100358.00;5058978;28;20023;-72
2024/02/08 01:52:59;;;;;;;12.15;1.33;;;;;;;-1.92;54.92;100355.44;5037673;28;20031;-73
2024/02/08 01:55:32;;;;;;;3.65;1.13;;;;;;;-1.89;54.70;100352.91;5076906;28;20035;-74
2024/02/08 01:58:05;;;;;;;3.13;0.98;;;;;;;-1.92;54.65;100355.44;5023517;28;20364;-73
2024/02/08 02:00:36;;;;;;;5.57;1.27;;;;;;;-1.98;54.97;100346.88;5023089;28;20150;-73
2024/02/08 02:03:09;;;;;;;4.22;1.20;;;;;;;-1.92;54.96;100349.47;5010192;28;20039;-72
2024/02/08 02:05:36;;;;;;;13.00;1.65;;;;;;;-1.92;54.96;100346.91;5030229;28;20184;-71
2024/02/08 02:08:05;;;;;;;4.03;1.25;;;;;;;-1.88;54.89;100346.06;4994934;28;20066;-72
2024/02/08 02:10:32;;;;;;;7.40;1.52;;;;;;;-1.87;55.05;100351.16;5030768;28;20046;-71
2024/02/08 02:13:04;;;;;;;7.28;1.50;;;;;;;-1.72;55.30;100352.06;5052081;28;20034;-74
2024/02/08 02:15:31;;;;;;;8.38;0.95;;;;;;;-1.66;54.87;100347.81;5076393;28;20027;-76
2024/02/08 02:18:01;;;;;;;6.65;1.00;;;;;;;-1.67;54.57;100342.69;5047300;28;20563;-75
2024/02/08 02:20:29;;;;;;;5.28;1.10;;;;;;;-1.63;54.70;100342.69;5059990;28;20040;-70
2024/02/08 02:23:03;;;;;;;4.47;1.50;;;;;;;-1.64;54.37;100342.72;5046477;28;20031;-70
2024/02/08 02:25:32;;;;;;;9.90;1.02;;;;;;;-1.64;54.83;100335.03;5076069;28;20093;-69
2024/02/08 02:27:58;;;;;;;10.38;1.75;;;;;;;-1.65;55.00;100329.03;5068246;28;20062;-70
2024/02/08 02:30:27;;;;;;;6.40;1.85;;;;;;;-1.54;54.80;100335.88;5055810;28;20124;-70
2024/02/08 02:32:55;;;;;;;12.88;1.58;;;;;;;-1.52;54.83;100329.91;5031086;28;21550;-70
2024/02/08 02:35:22;;;;;;;12.38;2.22;;;;;;;-1.53;54.96;100324.75;5062146;28;20033;-71
2024/02/08 02:37:49;;;;;;;13.57;1.70;;;;;;;-1.54;55.09;100316.22;5047053;28;20045;-72
2024/02/08 02:40:23;;;;;;;5.45;0.75;;;;;;;-1.63;55.06;100316.22;5059209;28;20077;-71
2024/02/08 02:42:52;;;;;;;8.20;1.65;;;;;;;-1.54;55.17;100311.09;5066001;28;20108;-71
2024/02/08 02:45:28;;;;;;;6.82;1.48;;;;;;;-1.57;55.17;100317.94;5074318;28;20126;-70
2024/02/08 02:47:58;;;;;;;7.85;1.42;;;;;;;-1.68;55.63;100323.06;5064250;28;20240;-71
2024/02/08 02:50:23;;;;;;;4.70;1.02;;;;;;;-1.47;54.89;100317.94;5076368;28;20101;-71
2024/02/08 02:52:50;;;;;;;5.47;1.13;;;;;;;-1.38;54.49;100323.06;5064352;28;20125;-71
2024/02/08 02:55:18;;;;;;;3.60;1.02;;;;;;;-1.33;54.77;100320.53;5057190;28;20035;-71
2024/02/08 02:57:45;;;;;;;3.40;1.00;;;;;;;-1.25;54.56;100323.06;5064978;28;20032;-71
2024/02/08 03:00:33;;;;;;;8.75;0.68;;;;;;;-1.26;54.59;100326.50;5071849;28;20039;-74
2024/02/08 03:03:12;;;;;;;4.45;1.17;;;;;;;-1.24;54.23;100319.66;5045956;28;20043;-74
2024/02/08 03:05:40;;;;;;;7.93;1.05;;;;;;;-1.23;54.18;100329.06;5049118;28;20019;-74
2024/02/08 03:08:05;;;;;;;3.50;0.60;;;;;;;-1.23;54.14;100318.81;5052742;28;20027;-73
2024/02/08 03:10:38;;;;;;;7.78;0.55;;;;;;;-1.28;54.15;100323.09;5059694;28;20089;-73
2024/02/08 03:13:04;;;;;;;13.18;1.05;;;;;;;-1.23;54.43;100323.94;5069125;28;20031;-73
2024/02/08 03:15:30;;;;;;;11.45;2.05;;;;;;;-1.25;54.54;100320.50;5042906;28;20036;-73
2024/02/08 03:17:56;;;;;;;3.85;0.88;;;;;;;-1.05;54.40;100325.66;5066318;28;20082;-74
2024/02/08 03:20:24;;;;;;;6.97;0.95;;;;;;;-1.07;54.18;100324.78;5044619;28;20032;-70
2024/02/08 03:22:50;;;;;;;2.65;0.70;;;;;;;-1.10;54.47;100322.22;4999978;28;20539;-70
2024/02/08 03:25:16;;;;;;;7.72;1.33;;;;;;;-1.26;54.42;100318.81;4997591;28;20165;-70
2024/02/08 03:27:42;;;;;;;4.65;1.05;;;;;;;-1.17;54.32;100318.81;5021730;28;20047;-70
2024/02/08 03:30:19;;;;;;;5.35;1.58;;;;;;;-1.19;54.48;100323.09;5015070;28;20028;-71
2024/02/08 03:32:53;;;;;;;5.38;1.52;;;;;;;-1.16;54.52;100323.06;5035043;28;20040;-71
2024/02/08 03:35:24;;;;;;;7.05;0.95;;;;;;;-1.16;54.21;100323.06;5062127;28;20066;-70
2024/02/08 03:38:00;;;;;;;2.17;0.77;;;;;;;-1.19;54.49;100323.09;5071880;28;20067;-71
2024/02/08 03:40:31;;;;;;;2.42;0.68;;;;;;;-1.18;54.62;100324.78;5072450;28;20448;-70
2024/02/08 03:42:57;;;;;;;5.30;0.95;;;;;;;-1.16;54.54;100317.94;5049621;28;20063;-70
2024/02/08 03:45:23;;;;;;;7.78;1.30;;;;;;;-1.15;54.51;100319.66;5074855;28;20053;-71
2024/02/08 03:47:52;;;;;;;3.25;1.13;;;;;;;-1.13;54.47;100319.66;5040491;28;20170;-71
2024/02/08 03:50:24;;;;;;;4.05;0.68;;;;;;;-1.12;54.25;100319.66;5075748;28;20047;-70
2024/02/08 03:52:50;;;;;;;8.07;1.27;;;;;;;-1.22;54.93;100317.94;5054179;28;20035;-71
2024/02/08 03:55:17;;;;;;;8.93;1.27;;;;;;;-1.20;54.94;100311.97;5051324;28;20044;-71
2024/02/08 03:57:48;;;;;;;7.55;1.20;;;;;;;-1.20;54.79;100311.09;5050898;28;20062;-71
2024/02/08 04:00:22;;;;;;;2.30;1.17;;;;;;;-1.16;54.70;100312.81;5072341;28;20416;-70
2024/02/08 04:02:48;;;;;;;5.72;1.15;;;;;;;-1.21;54.82;100306.84;5074804;28;20039;-69
2024/02/08 04:05:26;;;;;;;3.55;1.20;;;;;;;-1.20;54.81;100309.41;5056737;28;20899;-70
2024/02/08 04:07:59;;;;;;;7.07;0.70;;;;;;;-1.21;54.73;100306.84;5076321;28;20066;-69
2024/02/08 04:53:30;;;;;;;5.32;1.23;;;;;;;-1.18;54.59;100301.69;5045140;28;20055;-69
2024/02/08 04:54:16;;;;;;;11.70;1.63;;;;;;;-1.23;55.49;100305.97;5066559;28;20038;-65
2024/02/08 04:56:42;;;;;;;3.80;1.08;;;;;;;-1.14;55.54;100305.13;5052779;28;20060;-68
2024/02/08 04:59:08;;;;;;;8.60;1.00;;;;;;;-1.04;55.06;100301.72;5065159;28;20063;-66
2024/02/08 05:01:38;;;;;;;6.47;1.50;;;;;;;-1.01;54.82;100305.16;5041905;28;20126;-64
2024/02/08 05:04:06;;;;;;;7.07;1.23;;;;;;;-1.01;54.71;100307.72;5060121;28;20047;-64
2024/02/08 05:06:35;;;;;;;13.18;1.52;;;;;;;-1.03;55.03;100294.03;5037074;28;20121;-67
2024/02/08 05:09:00;;;;;;;11.35;2.03;;;;;;;-1.03;54.81;100309.41;5051404;28;20123;-65
2024/02/08 05:11:28;;;;;;;4.60;1.05;;;;;;;-1.04;54.93;100301.72;5070399;28;20043;-67
2024/02/08 05:14:00;;;;;;;5.25;0.95;;;;;;;-1.03;54.86;100299.16;5073216;28;20073;-73
2024/02/08 05:16:27;;;;;;;7.43;1.92;;;;;;;-1.12;54.56;100305.97;5070142;28;21461;-71
2024/02/08 05:18:55;;;;;;;9.18;1.63;;;;;;;-1.36;55.29;100314.53;5073499;28;20040;-70
2024/02/08 05:21:22;;;;;;;4.65;1.52;;;;;;;-1.26;55.06;100321.38;5048431;28;20565;-72
2024/02/08 05:23:51;;;;;;;13.23;1.63;;;;;;;-1.26;55.35;100316.25;5067744;28;20050;-70
2024/02/08 05:26:18;;;;;;;6.28;1.33;;;;;;;-1.32;55.68;100311.13;5070587;27;20089;-70
2024/02/08 05:28:48;;;;;;;4.82;1.23;;;;;;;-1.33;55.88;100319.66;5057831;28;20036;-71
2024/02/08 05:31:16;;;;;;;4.68;1.40;;;;;;;-1.30;55.77;100306.84;5069344;28;20032;-71
2024/02/08 05:33:42;;;;;;;9.73;1.58;;;;;;;-1.26;55.96;100300.88;5056586;28;20724;-75
2024/02/08 05:36:08;;;;;;;11.35;1.35;;;;;;;-1.21;55.75;100302.56;5054110;28;20039;-73
2024/02/08 05:38:37;;;;;;;17.00;1.77;;;;;;;-1.08;55.61;100305.13;5055929;28;20094;-73
2024/02/08 05:41:07;;;;;;;8.23;2.13;;;;;;;-1.38;56.21;100296.56;5054884;28;20104;-70
2024/02/08 05:43:47;;;;;;;8.07;1.90;;;;;;;-1.32;56.16;100288.03;5039479;28;20028;-73
2024/02/08 05:46:27;;;;;;;11.40;2.15;;;;;;;-1.22;55.99;100292.28;5067205;28;20034;-70
2024/02/08 05:48:54;;;;;;;15.13;3.38;;;;;;;-1.28;55.74;100289.75;5055204;28;20042;-74
2024/02/08 05:51:22;;;;;;;8.48;2.28;;;;;;;-1.21;55.80;100286.31;5069812;28;20032;-73
2024/02/08 05:53:48;;;;;;;9.23;2.20;;;;;;;-1.15;55.77;100278.63;5035901;28;20599;-72
2024/02/08 05:56:33;;;;;;;8.60;2.67;;;;;;;-1.17;55.58;100281.19;5021249;28;20035;-72
2024/02/08 05:59:05;;;;;;;10.02;2.67;;;;;;;-1.07;55.51;100278.63;5022880;28;20073;-71
2024/02/08 06:01:36;;;;;;;13.00;2.10;;;;;;;-1.24;56.02;100273.50;5005553;28;20130;-72
2024/02/08 06:04:03;;;;;;;13.45;1.88;;;;;;;-1.26;55.86;100275.22;5011497;28;20577;-72
2024/02/08 06:06:41;;;;;;;9.35;1.50;;;;;;;-1.25;56.03;100269.22;5030521;28;20470;-74
2024/02/08 06:09:09;;;;;;;9.52;1.60;;;;;;;-1.23;56.20;100270.94;5053966;28;20042;-74
2024/02/08 06:11:38;;;;;;;6.90;2.03;;;;;;;-1.19;56.12;100276.94;5048083;28;20570;-72
2024/02/08 06:14:21;;;;;;;10.15;2.33;;;;;;;-1.13;56.13;100274.34;5070320;28;20657;-74
2024/02/08 06:16:48;;;;;;;10.38;2.50;;;;;;;-1.18;56.20;100273.50;5054353;28;20063;-71
2024/02/08 06:19:15;;;;;;;5.80;1.33;;;;;;;-1.15;56.12;100270.06;5049311;28;20041;-71
2024/02/08 06:21:45;;;;;;;9.63;2.33;;;;;;;-1.19;56.04;100262.38;5054579;28;20032;-71
2024/02/08 06:26:56;;;;;;;7.05;2.40;;;;;;;-1.08;55.98;100253.84;5071951;28;20027;-71
2024/02/08 06:29:47;;;;;;;5.45;1.33;;;;;;;-1.05;56.27;100264.97;5068896;28;20036;-70
2024/02/08 06:32:23;;;;;;;15.88;2.53;;;;;;;-1.08;56.10;100264.94;5066290;28;21039;-72
2024/02/08 06:35:11;;;;;;;10.82;1.92;;;;;;;-1.17;56.05;100270.09;5074682;28;20039;-72
2024/02/08 06:37:56;;;;;;;10.30;1.20;;;;;;;-1.17;56.36;100264.97;5034612;28;20048;-72
2024/02/08 06:40:37;;;;;;;6.53;2.35;;;;;;;-1.07;55.93;100268.34;5065026;28;20031;-69
2024/02/08 07:41:21;;;;;;;9.38;3.15;;;;;;;-1.12;55.90;100242.72;5020733;28;20086;-72
2024/02/08 07:43:55;;;;;;;4.35;2.63;;;;;;;-0.96;56.00;100258.97;5055835;28;20326;-71
2024/02/08 07:46:27;;;;;;;8.77;1.77;;;;;;;-0.82;55.88;100259.75;5047894;28;20888;-70
2024/02/08 07:48:58;;;;;;;6.15;2.70;;;;;;;-0.77;55.66;100259.78;5055701;28;20478;-69
2024/02/08 07:51:28;;;;;;;7.20;2.47;;;;;;;-0.81;55.45;100258.06;5045530;28;20042;-69
2024/02/08 07:53:58;;;;;;;11.25;1.58;;;;;;;-0.86;55.60;100257.22;5058785;28;20053;-70
2024/02/08 07:58:56;;;;;;;10.02;2.60;;;;;;;-0.89;55.63;100249.53;5066649;28;20035;-71
2024/02/08 08:01:30;;;;;;;8.05;1.83;;;;;;;-0.81;55.75;100258.06;5051596;28;20039;-71
2024/02/08 08:03:57;;;;;;;16.48;2.60;;;;;;;-0.68;55.67;100251.16;5074436;28;20032;-71
2024/02/08 08:06:23;;;;;;;12.32;2.10;;;;;;;-0.54;55.43;100252.00;5039060;28;20035;-72
2024/02/08 08:08:57;;;;;;;10.02;2.80;;;;;;;-0.51;55.13;100258.81;5071173;28;20036;-71
2024/02/08 08:11:31;;;;;;;12.48;2.38;;;;;;;-0.49;55.12;100263.09;5043824;28;20035;-72
2024/02/08 08:18:59;;;;;;;8.50;2.00;;;;;;;-0.54;54.50;100246.84;5054532;28;20027;-70
2024/02/08 08:21:26;;;;;;;9.07;2.53;;;;;;;-0.41;55.16;100247.66;5046932;28;20032;-73
2024/02/08 08:24:02;;;;;;;8.50;2.58;;;;;;;-0.34;54.76;100241.63;5052780;28;20791;-75
2024/02/08 08:26:43;;;;;;;8.32;2.80;;;;;;;-0.40;54.73;100239.09;5039857;28;20093;-74
2024/02/08 08:29:17;;;;;;;10.50;2.80;;;;;;;-0.32;54.55;100234.78;5029565;28;20194;-70
2024/02/08 08:31:51;;;;;;;13.25;3.80;;;;;;;-0.18;54.97;100227.00;5020956;28;20667;-70
2024/02/08 08:37:02;;;;;;;5.53;3.00;;;;;;;-0.21;54.04;100238.13;5030279;28;20036;-72
2024/02/08 08:42:17;;;;;;;8.65;3.47;;;;;;;-0.14;55.13;100229.53;5055873;28;20047;-76
2024/02/08 08:44:59;;;;;;;8.20;2.72;;;;;;;-0.01;54.52;100237.16;5054110;28;20037;-74
2024/02/08 08:47:28;;;;;;;7.13;2.58;;;;;;;0.19;54.92;100229.28;5076129;28;20039;-74
2024/02/08 08:49:54;;;;;;;9.52;2.45;;;;;;;0.11;54.10;100237.06;5055669;28;20919;-72
2024/02/08 08:52:26;;;;;;;14.98;2.80;;;;;;;0.14;54.42;100231.91;5039398;28;20049;-74
2024/02/08 08:55:11;;;;;;;11.02;2.55;;;;;;;0.31;54.41;100221.50;5052680;28;20020;-74
2024/02/08 08:57:37;;;;;;;14.45;2.50;;;;;;;0.44;54.23;100229.97;5073033;28;20192;-72
2024/02/08 09:00:09;;;;;;;7.72;1.92;;;;;;;0.55;54.12;100225.59;5056213;28;20039;-65
2024/02/08 09:02:40;;;;;;;8.82;1.92;;;;;;;0.55;53.02;100223.03;5028975;28;20074;-65
2024/02/08 09:05:17;;;;;;;5.33;2.00;;;;;;;0.52;53.37;100222.19;5055859;28;20773;-66
2024/02/08 09:07:45;;;;;;;11.77;1.95;;;;;;;0.42;53.16;100216.28;5070856;28;20289;-67
2024/02/08 09:10:18;;;;;;;5.00;2.08;;;;;;;0.37;53.83;100215.47;5059502;28;20034;-67
2024/02/08 09:12:59;;;;;;;4.57;1.88;;;;;;;0.51;53.22;100218.75;5065140;28;20040;-66
2024/02/08 09:15:26;;;;;;;8.00;1.88;;;;;;;0.45;53.08;100214.53;5020827;28;20163;-66
2024/02/08 09:17:53;;;;;;;12.40;3.58;;;;;;;0.53;53.57;100214.47;5043694;28;20867;-67
2024/02/08 09:20:20;;;;;;;7.57;2.30;;;;;;;0.63;53.31;100210.06;5054601;28;20513;-65
2024/02/08 09:22:52;;;;;;;4.32;2.13;;;;;;;0.73;53.23;100205.72;5067170;28;20154;-67
2024/02/08 09:25:22;;;;;;;5.47;1.92;;;;;;;0.76;52.63;100200.53;5053654;28;20024;-65
2024/02/08 09:27:53;;;;;;;4.97;2.63;;;;;;;0.89;52.96;100200.38;5015705;28;20028;-66
2024/02/08 09:30:38;;;;;;;6.60;1.83;;;;;;;1.00;52.21;100208.00;5074384;28;20051;-66
2024/02/08 09:33:14;;;;;;;6.65;1.70;;;;;;;0.97;52.29;100200.31;5052304;28;20418;-64
2024/02/08 09:35:44;;;;;;;8.70;2.75;;;;;;;1.18;52.56;100200.94;5073632;28;20084;-65
2024/02/08 09:38:09;;;;;;;11.43;1.70;;;;;;;1.35;51.97;100211.88;5038584;28;20030;-65
2024/02/08 09:40:45;;;;;;;8.23;2.55;;;;;;;1.27;51.40;100200.81;5064106;27;20027;-66
2024/02/08 09:43:16;;;;;;;6.32;1.83;;;;;;;1.29;51.66;100211.94;5060040;28;20034;-64
2024/02/08 09:46:10;;;;;;;4.10;1.55;;;;;;;1.40;51.50;100194.69;5070414;28;20039;-65
2024/02/08 09:48:47;;;;;;;7.53;1.63;;;;;;;1.30;50.80;100190.47;5078571;28;20031;-66
2024/02/08 09:51:24;;;;;;;6.05;1.70;;;;;;;1.26;50.45;100181.06;5074854;28;20043;-65
2024/02/08 09:53:54;;;;;;;10.70;1.92;;;;;;;1.37;50.93;100181.78;5049676;28;20023;-65
2024/02/08 09:56:37;;;;;;;11.68;2.08;;;;;;;1.29;50.43;100181.91;5072746;28;20442;-67
2024/02/08 09:59:07;;;;;;;11.45;2.28;;;;;;;1.17;50.83;100187.22;5068621;28;21577;-65
2024/02/08 10:01:44;;;;;;;8.73;2.10;;;;;;;0.88;51.10;100169.50;5076505;28;20627;-66
2024/02/08 10:04:19;;;;;;;7.13;1.85;;;;;;;1.23;51.83;100175.97;5006082;28;20033;-65
2024/02/08 10:06:58;;;;;;;6.47;1.75;;;;;;;1.16;51.51;100175.19;4999241;28;20119;-64
2024/02/08 10:09:34;;;;;;;8.05;1.73;;;;;;;1.27;52.09;100164.78;4995264;28;20051;-64
2024/02/08 10:12:30;;;;;;;12.57;2.95;;;;;;;1.18;51.22;100162.31;4969269;28;20038;-65
2024/02/08 10:14:54;;;;;;;6.50;1.80;;;;;;;1.18;51.48;100162.31;4994140;28;20490;-64
2024/02/08 10:22:56;;;;;;;20.02;2.75;;;;;;;1.55;52.48;100165.31;5056296;28;20047;-65
2024/02/08 10:28:13;;;;;;;6.65;1.98;;;;;;;1.90;51.11;100159.59;5063503;28;20085;-65
2024/02/08 10:30:57;;;;;;;6.38;1.83;;;;;;;2.15;50.98;100161.78;5073495;28;20031;-66
2024/02/08 10:33:24;;;;;;;9.65;2.08;;;;;;;2.27;50.63;100164.19;5052884;28;20130;-66
2024/02/08 10:35:59;;;;;;;15.10;3.08;;;;;;;2.30;49.99;100161.53;5067161;28;20047;-64
2024/02/08 10:38:30;;;;;;;7.72;1.75;;;;;;;2.44;49.55;100152.72;5004703;28;20060;-65
2024/02/08 10:40:59;;;;;;;8.18;2.03;;;;;;;2.50;49.22;100145.72;5055615;28;20139;-64
2024/02/08 10:43:25;;;;;;;6.15;1.65;;;;;;;2.49;49.17;100148.34;5069582;28;20144;-65
2024/02/08 10:46:02;;;;;;;8.40;2.60;;;;;;;2.90;49.03;100150.13;5067896;28;20621;-64
2024/02/08 10:48:31;;;;;;;12.02;1.98;;;;;;;2.80;48.08;100145.16;5069481;28;20426;-65
2024/02/08 10:51:11;;;;;;;9.23;1.90;;;;;;;3.05;48.74;100127.47;5058690;28;20043;-65
2024/02/08 10:53:43;;;;;;;5.25;1.25;;;;;;;3.24;48.48;100133.09;5047872;28;20042;-64
2024/02/08 10:56:17;;;;;;;5.38;1.63;;;;;;;3.16;48.34;100128.09;5066913;28;20051;-66
2024/02/08 11:01:37;;;;;;;4.97;1.23;;;;;;;3.50;46.58;100128.25;5041260;28;21198;-64
2024/02/08 11:04:28;;;;;;;6.18;1.75;;;;;;;3.41;47.87;100112.94;5026734;28;20047;-65
2024/02/08 11:07:23;;;;;;;8.95;2.03;;;;;;;3.54;47.56;100114.38;5060989;28;20046;-64
2024/02/08 11:09:48;;;;;;;9.88;1.35;;;;;;;3.62;47.24;100114.19;5016375;28;20042;-66
2024/02/08 11:12:23;;;;;;;8.75;1.38;;;;;;;3.73;46.55;100107.03;5034615;28;20520;-65
2024/02/08 11:14:56;;;;;;;7.55;0.98;;;;;;;3.54;46.97;100101.44;5070160;28;20058;-67
2024/02/08 11:17:32;;;;;;;9.43;1.08;;;;;;;3.51;47.21;100106.66;5067054;28;20743;-64
2024/02/08 11:19:58;;;;;;;7.13;1.52;;;;;;;3.63;47.08;100099.53;5043732;28;20059;-66
2024/02/08 11:22:40;;;;;;;7.70;1.42;;;;;;;3.61;47.21;100101.31;5048442;28;20145;-66
2024/02/08 11:25:19;;;;;;;5.45;1.67;;;;;;;3.68;47.17;100090.78;5015000;28;20037;-65
2024/02/08 11:27:49;;;;;;;4.90;1.00;;;;;;;3.51;46.56;100088.59;5047590;28;20078;-68
2024/02/08 11:30:19;;;;;;;5.20;1.05;;;;;;;3.38;47.39;100084.59;5028163;28;21326;-66
2024/02/08 11:33:01;;;;;;;6.72;0.90;;;;;;;3.42;47.04;100086.22;5068715;28;20092;-66
2024/02/08 11:35:40;;;;;;;6.35;0.50;;;;;;;3.39;47.29;100087.13;5049580;28;20102;-66
2024/02/08 11:38:16;;;;;;;14.02;2.70;;;;;;;2.89;47.53;100075.28;5049155;28;20038;-65
2024/02/08 11:40:45;;;;;;;7.35;1.25;;;;;;;3.28;48.25;100077.91;5069176;28;20737;-65
2024/02/08 11:43:23;;;;;;;2.90;0.77;;;;;;;3.14;47.79;100070.47;5064366;28;20087;-68
2024/02/08 11:45:53;;;;;;;8.35;1.10;;;;;;;3.17;48.00;100060.91;5070809;28;20118;-66
2024/02/08 11:48:27;;;;;;;7.75;0.65;;;;;;;3.07;48.07;100061.13;5061808;28;20059;-67
2024/02/08 11:50:55;;;;;;;12.02;1.13;;;;;;;2.82;48.64;100064.25;5068245;28;20110;-66
2024/02/08 11:53:33;;;;;;;8.85;1.00;;;;;;;2.89;48.85;100063.25;5062772;28;20032;-66
2024/02/08 11:56:09;;;;;;;6.97;0.80;;;;;;;3.00;48.52;100062.16;5066278;28;20441;-67
2024/02/08 11:58:45;;;;;;;6.90;1.05;;;;;;;3.17;48.62;100048.00;5065905;28;20240;-65
2024/02/08 12:01:14;;;;;;;6.35;0.70;;;;;;;3.14;48.72;100050.66;5043497;28;20065;-66
2024/02/08 12:03:41;;;;;;;5.75;0.95;;;;;;;3.09;48.40;100043.88;5064615;28;20034;-67
2024/02/08 12:06:21;;;;;;;4.85;1.20;;;;;;;3.15;48.17;100036.00;5061660;28;20047;-68
2024/02/08 12:08:57;;;;;;;9.25;2.03;;;;;;;3.03;48.60;100039.72;5055647;28;20130;-68
2024/02/08 12:11:24;;;;;;;9.40;1.55;;;;;;;3.12;48.34;100036.09;5036482;28;20079;-66
2024/02/08 12:13:56;;;;;;;12.52;1.85;;;;;;;3.13;48.82;100027.44;4991694;28;20424;-66
2024/02/08 12:16:27;;;;;;;8.55;1.27;;;;;;;3.07;48.63;100031.03;5008338;28;20581;-65
2024/02/08 12:18:55;;;;;;;4.60;1.38;;;;;;;2.97;49.28;100020.03;5021760;27;20114;-65
2024/02/08 12:21:23;;;;;;;11.75;1.35;;;;;;;2.92;49.49;100021.03;5011613;27;20608;-65
2024/02/08 12:23:54;;;;;;;6.03;1.23;;;;;;;2.92;49.56;100013.28;5042601;27;20458;-65
2024/02/08 12:26:31;;;;;;;6.53;1.10;;;;;;;2.92;49.58;100015.88;5015829;28;20321;-65
2024/02/08 12:29:02;;;;;;;3.33;0.98;;;;;;;2.88;48.98;100009.06;4989376;28;20039;-67
2024/02/08 12:31:33;;;;;;;3.75;1.02;;;;;;;3.01;49.24;100007.94;5025020;28;20039;-66
2024/02/08 12:34:03;;;;;;;6.43;0.77;;;;;;;3.01;48.76;100001.91;5024255;28;20039;-65
2024/02/08 12:36:35;;;;;;;4.75;1.08;;;;;;;2.95;48.09;99993.41;5033033;28;20043;-66
2024/02/08 12:39:17;;;;;;;7.88;1.83;;;;;;;2.80;46.72;99992.91;5067900;28;20182;-66
2024/02/08 12:41:47;;;;;;;4.05;0.30;;;;;;;2.81;46.09;99985.13;5051600;28;20036;-68
2024/02/08 12:44:20;;;;;;;4.72;0.20;;;;;;;2.85;45.49;99988.50;5045587;28;20051;-66
2024/02/08 12:46:52;;;;;;;3.53;0.38;;;;;;;2.50;45.38;99990.94;5053789;28;20058;-66
2024/02/08 12:49:18;;;;;;;;;;;;;;;2.62;45.16;99994.16;5062497;28;20453;-64
2024/02/08 12:51:43;;;;;;;4.65;0.30;;;;;;;2.60;45.25;99985.59;5033111;28;19920;-67
2024/02/08 12:54:14;;;;;;;2.38;0.20;;;;;;;2.71;45.02;99978.47;5057514;28;20157;-67
2024/02/08 12:56:39;;;;;;;2.40;0.47;;;;;;;2.61;45.61;99984.72;5041210;28;20066;-68
2024/02/08 12:59:05;;;;;;;4.18;0.40;;;;;;;2.68;44.94;99976.81;5039773;28;20036;-66
2024/02/08 13:01:44;;;;;;;3.47;0.45;;;;;;;2.51;45.75;99966.88;5047910;28;20048;-66
2024/02/08 13:04:17;;;;;;;5.57;0.30;;;;;;;2.53;46.45;99964.22;5031560;28;20034;-65
2024/02/08 13:06:43;;;;;;;4.43;0.30;;;;;;;2.53;46.38;99965.09;5039493;28;20122;-65
2024/02/08 13:09:27;;;;;;;1.77;0.50;;;;;;;2.47;47.03;99964.38;5051999;28;20308;-64
2024/02/08 13:12:15;;;;;;;5.55;0.60;;;;;;;2.46;46.89;99967.81;5061751;28;20071;-65
2024/02/08 13:14:48;;;;;;;10.68;0.70;;;;;;;2.15;48.01;99968.44;5065232;28;20540;-65
2024/02/08 13:17:20;;;;;;;6.88;0.32;;;;;;;2.25;47.62;99967.38;5034925;28;20054;-66
2024/02/08 13:19:55;;;;;;;13.25;0.82;;;;;;;2.14;48.38;99965.00;5052972;28;20101;-66
2024/02/08 13:22:31;;;;;;;3.78;0.80;;;;;;;2.19;48.52;99958.94;5049652;28;20105;-65
2024/02/08 13:24:57;;;;;;;10.75;1.88;;;;;;;2.16;49.06;99964.16;5037344;28;20126;-67
2024/02/08 13:27:30;;;;;;;3.92;0.70;;;;;;;2.28;48.92;99962.16;5047043;28;20177;-66
2024/02/08 13:29:57;;;;;;;5.72;1.30;;;;;;;2.29;49.18;99958.72;5059085;28;20024;-66
2024/02/08 13:32:27;;;;;;;11.35;1.23;;;;;;;2.40;48.96;99963.66;5047025;28;20361;-66
2024/02/08 13:34:57;;;;;;;4.72;1.27;;;;;;;2.40;49.53;99960.22;5053935;28;20036;-65
2024/02/08 13:37:26;;;;;;;6.55;0.80;;;;;;;2.47;49.36;99954.91;5059059;28;20043;-64
2024/02/08 13:40:03;;;;;;;3.45;1.45;;;;;;;2.46;48.95;99944.59;5067985;28;20036;-66
2024/02/08 13:42:32;;;;;;;7.38;1.77;;;;;;;2.40;49.39;99957.63;5034826;28;20144;-67
2024/02/08 13:45:03;;;;;;;6.35;0.90;;;;;;;2.42;49.29;99951.59;5040981;28;20138;-68
2024/02/08 13:47:29;;;;;;;5.47;1.45;;;;;;;2.40;49.66;99950.75;5062315;28;20081;-67
2024/02/08 13:49:55;;;;;;;8.15;2.15;;;;;;;2.39;49.68;99945.63;5072007;28;20032;-68